Startpagina
METAR-TAF:

METAR-TAF

Vliegvelden :

Aeropuerto de Bilbao

Bilbao, Spanje

breedte: 43-18N, lengte: 002-56W, hoogte: 42 m

Actueel weer

Dit bericht is 40 minuten geleden gemaakt, om 20:30 UTC
Wind 4 kt uit het zuidzuidoosten, variërend tussen het oostzuidoosten en het zuidzuidwesten
Temperatuur 19°C
Vochtigheid 64%
Druk 1017 hPa
Zicht 10 km of meer
geen wolken onder 1500 m en geen cumulonimbus

METAR: LEBB 092030Z 15004KT 110V210 CAVOK 19/12 Q1017 NOSIG

Tijdstip: 23:10 (21:10 UTC)

Verwachting

Dit bericht is 4 uur en het 10 minuten geleden gemaakt, om 17:00 UTC
Verwachting geldig van 09 om 18 UTC tot 10 om 18 UTC
Wind 8 kt uit het oostzuidoosten
Zicht 10 km of meer
Weinig wolken op 3000 ft
Tijdelijke
van 09 om 18 UTC tot 09 om 20 UTC
Wind 10 kt uit het oostnoordoosten
Tijdelijke
van 10 om 12 UTC tot 10 om 18 UTC
Wind 8 kt uit het noordwesten

TAF: LEBB 091700Z 0918/1018 12008KT 9999 FEW030 TX23/0918Z TN13/1006Z TEMPO 0918/0920 06010KT TEMPO 1012/1018 32008KT

Waarnemingen en weersverwachtingen van meer dan 4000 vliegvelden (METAR en TAF).

De beschikbare stations zijn de gele en rode punten op de kaart.

Ga met uw muis naar het station om de naam te zien.

Klik dan om waarnemingen en weersverwachtingen te zien.

kaart wijzigen: klik op de groene knoppen met een zwart kruis om in te zoomen, op de groene knop met een streepje om uit te zoomen of op de groene pijlen voor aangrenzende kaarten.


METAR-TAF: